Time;durP1;ratioP1;P1;durP2;ratioP2;P2;SDS_P1;SDS_P2;PMS_P1;PMS_P2;Temp;Humidity;BMP_temperature;BMP_pressure;BME280_temperature;BME280_humidity;BME280_pressure;Samples;Min_cycle;Max_cycle;Signal;HPM_P1;HPM_P2
2021/12/20 00:01:46;;;;;;;42.90;24.13;;;;;;;;;;5028834;28;20496;-45
2021/12/20 00:04:12;;;;;;;43.15;24.08;;;;;;;;;;5027722;28;20692;-45
2021/12/20 00:06:41;;;;;;;30.42;16.60;;;;;;;;;;5030360;28;20024;-43
2021/12/20 00:09:07;;;;;;;44.22;23.85;;;;;;;;;;5029955;28;20582;-43
2021/12/20 00:11:38;;;;;;;41.78;22.65;;;;;;;;;;5044545;28;20492;-46
2021/12/20 00:14:04;;;;;;;29.13;16.63;;;;;;;;;;5053344;28;20021;-45
2021/12/20 00:16:30;;;;;;;23.70;13.55;;;;;;;;;;5053197;28;20055;-45
2021/12/20 00:18:56;;;;;;;27.05;15.43;;;;;;;;;;5053314;28;20037;-45
2021/12/20 00:21:24;;;;;;;33.78;17.80;;;;;;;;;;5053228;28;20056;-45
2021/12/20 00:23:50;;;;;;;38.50;19.52;;;;;;;;;;5053276;28;20032;-45
2021/12/20 00:26:18;;;;;;;34.33;17.20;;;;;;;;;;5053191;28;20512;-45
2021/12/20 00:28:44;;;;;;;35.80;16.02;;;;;;;;;;5053378;28;20481;-45
2021/12/20 00:31:10;;;;;;;56.72;27.83;;;;;;;;;;5053197;28;20025;-45
2021/12/20 00:33:37;;;;;;;41.00;21.38;;;;;;;;;;5053160;28;20021;-46
2021/12/20 00:36:04;;;;;;;31.73;16.88;;;;;;;;;;5053228;28;20033;-43
2021/12/20 00:41:15;;;;;;;31.10;16.65;;;;;;;;;;5053332;28;20031;-45
2021/12/20 00:43:41;;;;;;;26.60;15.02;;;;;;;;;;5052979;28;20029;-45
2021/12/20 00:46:10;;;;;;;32.45;18.10;;;;;;;;;;5053309;28;20490;-44
2021/12/20 00:48:38;;;;;;;21.58;13.40;;;;;;;;;;5053135;28;20024;-45
2021/12/20 00:51:04;;;;;;;38.25;20.13;;;;;;;;;;5056348;28;20039;-44
2021/12/20 00:53:31;;;;;;;25.95;14.60;;;;;;;;;;5057216;28;20021;-44
2021/12/20 00:55:57;;;;;;;21.73;13.07;;;;;;;;;;5057092;28;20047;-44
2021/12/20 00:58:23;;;;;;;22.38;12.48;;;;;;;;;;5057090;28;20029;-43
2021/12/20 01:00:51;;;;;;;35.78;18.90;;;;;;;;;;5057084;28;20029;-45
2021/12/20 01:03:17;;;;;;;24.80;14.25;;;;;;;;;;5056842;28;20031;-44
2021/12/20 01:05:44;;;;;;;21.30;11.93;;;;;;;;;;5057159;28;20102;-44
2021/12/20 01:08:10;;;;;;;20.85;11.73;;;;;;;;;;5056862;28;20468;-45
2021/12/20 01:10:38;;;;;;;19.63;11.82;;;;;;;;;;5056879;28;20033;-43
2021/12/20 01:13:04;;;;;;;22.55;12.90;;;;;;;;;;5057205;28;20531;-44
2021/12/20 01:15:44;;;;;;;25.35;14.38;;;;;;;;;;5056857;28;20393;-45
2021/12/20 01:18:10;;;;;;;18.50;11.88;;;;;;;;;;5056717;28;20225;-46
2021/12/20 01:20:37;;;;;;;18.98;11.27;;;;;;;;;;5056840;28;20037;-45
2021/12/20 01:23:03;;;;;;;18.63;11.10;;;;;;;;;;5056818;28;20024;-44
2021/12/20 01:25:29;;;;;;;22.95;12.55;;;;;;;;;;5056641;28;20032;-44
2021/12/20 01:27:55;;;;;;;26.00;14.85;;;;;;;;;;5056654;28;20016;-44
2021/12/20 01:30:23;;;;;;;22.90;14.18;;;;;;;;;;5056662;28;20051;-44
2021/12/20 01:32:50;;;;;;;20.52;11.98;;;;;;;;;;5056381;28;20115;-45
2021/12/20 01:35:16;;;;;;;23.02;11.98;;;;;;;;;;5056614;28;20384;-45
2021/12/20 01:37:42;;;;;;;17.70;10.82;;;;;;;;;;5056579;28;20143;-45
2021/12/20 01:40:10;;;;;;;17.17;10.25;;;;;;;;;;5056458;28;20029;-45
2021/12/20 01:42:36;;;;;;;21.67;12.07;;;;;;;;;;5056283;28;20387;-45
2021/12/20 01:45:06;;;;;;;13.02;8.30;;;;;;;;;;5056192;28;20098;-44
2021/12/20 01:47:36;;;;;;;17.30;9.63;;;;;;;;;;5056162;28;20538;-45
2021/12/20 01:50:14;;;;;;;17.60;10.50;;;;;;;;;;5056164;28;20040;-45
2021/12/20 01:52:43;;;;;;;17.13;8.90;;;;;;;;;;5056295;28;20115;-45
2021/12/20 01:55:13;;;;;;;14.73;8.75;;;;;;;;;;5056119;28;20385;-45
2021/12/20 01:57:42;;;;;;;18.98;9.93;;;;;;;;;;5056009;28;20025;-44
2021/12/20 02:00:10;;;;;;;28.17;15.32;;;;;;;;;;5055790;28;20029;-45
2021/12/20 02:02:37;;;;;;;16.40;10.60;;;;;;;;;;5054936;28;20431;-44
2021/12/20 02:05:14;;;;;;;19.75;10.48;;;;;;;;;;5055863;28;20025;-44
2021/12/20 02:07:52;;;;;;;12.55;7.95;;;;;;;;;;5055845;28;20067;-45
2021/12/20 02:10:18;;;;;;;22.20;12.75;;;;;;;;;;5055727;28;20108;-44
2021/12/20 02:12:45;;;;;;;19.65;11.18;;;;;;;;;;5055775;28;20021;-44
2021/12/20 02:15:11;;;;;;;19.83;9.85;;;;;;;;;;5055459;28;20476;-44
2021/12/20 02:17:39;;;;;;;19.90;10.20;;;;;;;;;;5055561;28;20064;-44
2021/12/20 02:20:09;;;;;;;25.92;13.45;;;;;;;;;;5055676;28;20036;-44
2021/12/20 02:22:38;;;;;;;16.13;9.05;;;;;;;;;;5055640;28;20553;-44
2021/12/20 02:25:07;;;;;;;15.60;9.80;;;;;;;;;;5055565;28;20033;-44
2021/12/20 02:27:35;;;;;;;15.23;8.80;;;;;;;;;;5055384;28;20375;-45
2021/12/20 02:30:15;;;;;;;18.13;9.15;;;;;;;;;;5055555;28;20025;-45
2021/12/20 02:38:21;;;;;;;16.50;9.57;;;;;;;;;;5055320;28;20106;-44
2021/12/20 02:40:47;;;;;;;20.20;10.38;;;;;;;;;;5055237;28;20025;-44
2021/12/20 02:43:17;;;;;;;15.20;8.52;;;;;;;;;;5055062;28;20025;-45
2021/12/20 02:45:48;;;;;;;19.73;11.00;;;;;;;;;;5055295;28;20041;-45
2021/12/20 02:48:14;;;;;;;23.42;12.35;;;;;;;;;;5055003;28;20021;-46
2021/12/20 02:50:42;;;;;;;7.55;5.07;;;;;;;;;;5055179;28;20462;-44
2021/12/20 02:53:08;;;;;;;22.95;11.55;;;;;;;;;;5055093;28;20417;-45
2021/12/20 02:55:39;;;;;;;16.27;8.10;;;;;;;;;;5055261;28;20025;-46
2021/12/20 02:58:05;;;;;;;15.80;10.10;;;;;;;;;;5055137;28;20039;-46
2021/12/20 03:00:31;;;;;;;24.63;12.90;;;;;;;;;;5054832;28;20041;-44
2021/12/20 03:02:57;;;;;;;27.45;14.65;;;;;;;;;;5054729;28;20384;-43
2021/12/20 03:05:23;;;;;;;17.00;12.23;;;;;;;;;;5055065;28;20079;-43
2021/12/20 03:07:52;;;;;;;21.75;14.02;;;;;;;;;;5054729;28;20032;-45
2021/12/20 03:10:22;;;;;;;18.65;11.75;;;;;;;;;;5054655;28;20032;-44
2021/12/20 03:12:49;;;;;;;17.73;11.05;;;;;;;;;;5054168;28;20029;-44
2021/12/20 03:15:20;;;;;;;15.45;9.48;;;;;;;;;;5054428;28;20388;-44
2021/12/20 03:17:46;;;;;;;15.15;9.25;;;;;;;;;;5054377;28;20052;-44
2021/12/20 03:20:15;;;;;;;23.08;13.00;;;;;;;;;;5054475;28;20055;-44
2021/12/20 03:22:42;;;;;;;20.02;14.02;;;;;;;;;;5053504;28;20022;-44
2021/12/20 03:25:11;;;;;;;20.88;13.82;;;;;;;;;;5054702;28;20027;-45
2021/12/20 03:27:37;;;;;;;30.77;17.58;;;;;;;;;;5054361;28;20043;-45
2021/12/20 03:30:04;;;;;;;28.85;16.35;;;;;;;;;;5054605;28;20056;-44
2021/12/20 03:32:30;;;;;;;18.02;10.98;;;;;;;;;;5054140;28;20496;-45
2021/12/20 03:34:56;;;;;;;8.75;5.60;;;;;;;;;;5054494;28;20033;-45
2021/12/20 03:37:22;;;;;;;9.63;5.80;;;;;;;;;;5054164;28;20049;-45
2021/12/20 03:39:49;;;;;;;9.80;5.88;;;;;;;;;;5054274;28;20029;-44
2021/12/20 03:42:15;;;;;;;10.07;6.00;;;;;;;;;;5054175;28;20025;-45
2021/12/20 03:44:44;;;;;;;11.13;6.15;;;;;;;;;;5053797;28;20032;-45
2021/12/20 03:47:12;;;;;;;10.50;6.47;;;;;;;;;;5054058;28;20151;-47
2021/12/20 03:49:38;;;;;;;14.07;6.53;;;;;;;;;;5054266;28;20021;-47
2021/12/20 03:52:07;;;;;;;8.48;5.50;;;;;;;;;;5053888;28;20045;-46
2021/12/20 03:54:36;;;;;;;11.32;5.95;;;;;;;;;;5053893;28;20021;-45
2021/12/20 03:57:04;;;;;;;10.50;5.78;;;;;;;;;;5053732;28;20021;-44
2021/12/20 03:59:31;;;;;;;9.88;6.22;;;;;;;;;;5053784;28;20029;-45
2021/12/20 04:01:57;;;;;;;18.92;9.75;;;;;;;;;;5053920;28;20031;-43
2021/12/20 04:04:24;;;;;;;16.10;10.85;;;;;;;;;;5054068;28;20024;-44
2021/12/20 04:06:50;;;;;;;18.02;10.80;;;;;;;;;;5053799;28;20049;-44
2021/12/20 04:09:16;;;;;;;11.80;7.70;;;;;;;;;;5053851;28;20481;-45
2021/12/20 04:11:42;;;;;;;12.18;7.30;;;;;;;;;;5053444;28;20040;-44
2021/12/20 04:14:08;;;;;;;6.18;3.97;;;;;;;;;;5053447;28;20385;-45
2021/12/20 04:16:36;;;;;;;8.13;4.72;;;;;;;;;;5053158;28;20048;-45
2021/12/20 04:19:02;;;;;;;7.68;4.65;;;;;;;;;;5053699;28;20032;-45
2021/12/20 04:21:30;;;;;;;11.20;5.10;;;;;;;;;;5053720;28;20029;-44
2021/12/20 04:23:58;;;;;;;7.57;3.92;;;;;;;;;;5052976;28;20025;-44
2021/12/20 04:26:24;;;;;;;9.77;4.93;;;;;;;;;;5053269;28;20025;-44
2021/12/20 04:28:50;;;;;;;5.07;3.50;;;;;;;;;;5053349;28;20079;-44
2021/12/20 04:31:17;;;;;;;10.95;5.88;;;;;;;;;;5053338;28;20021;-45
2021/12/20 04:33:43;;;;;;;9.57;6.05;;;;;;;;;;5053315;28;20017;-44
2021/12/20 04:36:09;;;;;;;12.68;8.23;;;;;;;;;;5053302;28;20128;-43
2021/12/20 04:38:38;;;;;;;14.82;9.70;;;;;;;;;;5053290;28;20389;-43
2021/12/20 04:41:04;;;;;;;37.85;21.15;;;;;;;;;;5053143;28;20043;-44
2021/12/20 04:43:30;;;;;;;30.25;16.58;;;;;;;;;;5053013;28;20021;-45
2021/12/20 04:45:56;;;;;;;27.23;15.18;;;;;;;;;;5052980;28;20465;-49
2021/12/20 04:48:22;;;;;;;31.02;15.13;;;;;;;;;;5053053;28;20027;-49
2021/12/20 04:50:48;;;;;;;10.77;7.45;;;;;;;;;;5053017;28;20032;-48
2021/12/20 04:53:14;;;;;;;29.25;15.55;;;;;;;;;;5053018;28;20021;-49
2021/12/20 04:55:41;;;;;;;22.55;10.68;;;;;;;;;;5053137;28;20033;-51
2021/12/20 04:58:07;;;;;;;19.52;10.05;;;;;;;;;;5052982;28;20028;-51
2021/12/20 05:00:37;;;;;;;6.13;3.67;;;;;;;;;;5052912;28;20497;-51
2021/12/20 05:03:04;;;;;;;17.63;9.30;;;;;;;;;;5052871;28;20053;-51
2021/12/20 05:05:30;;;;;;;17.92;10.27;;;;;;;;;;5052979;28;20025;-51
2021/12/20 05:07:57;;;;;;;26.50;13.00;;;;;;;;;;5052942;28;20029;-51
2021/12/20 05:10:33;;;;;;;17.30;8.55;;;;;;;;;;5052827;28;20048;-49
2021/12/20 05:13:01;;;;;;;13.82;7.80;;;;;;;;;;5052782;28;20033;-50
2021/12/20 05:15:27;;;;;;;17.42;8.18;;;;;;;;;;5052541;28;20083;-50
2021/12/20 05:17:54;;;;;;;40.47;19.30;;;;;;;;;;5052769;28;20382;-49
2021/12/20 05:20:20;;;;;;;20.65;10.23;;;;;;;;;;5052867;28;20033;-50
2021/12/20 05:22:46;;;;;;;19.08;11.20;;;;;;;;;;5053078;28;20211;-50
2021/12/20 05:25:12;;;;;;;20.55;9.20;;;;;;;;;;5052900;28;20159;-49
2021/12/20 05:27:38;;;;;;;19.65;8.68;;;;;;;;;;5052747;28;20044;-50
2021/12/20 05:30:08;;;;;;;19.08;9.88;;;;;;;;;;5052704;28;20377;-51
2021/12/20 05:32:35;;;;;;;15.55;7.50;;;;;;;;;;5052897;28;20029;-49
2021/12/20 05:35:01;;;;;;;20.85;10.90;;;;;;;;;;5052717;28;20035;-49
2021/12/20 05:37:30;;;;;;;13.77;7.25;;;;;;;;;;5056390;28;20094;-50
2021/12/20 05:39:56;;;;;;;26.55;14.07;;;;;;;;;;5056279;28;20042;-49
2021/12/20 05:42:22;;;;;;;15.05;8.13;;;;;;;;;;5056362;28;20397;-48
2021/12/20 05:44:50;;;;;;;13.23;6.93;;;;;;;;;;5056599;28;20025;-49
2021/12/20 05:47:17;;;;;;;25.10;11.02;;;;;;;;;;5056492;28;20086;-49
2021/12/20 05:49:48;;;;;;;23.42;10.70;;;;;;;;;;5056425;28;20431;-49
2021/12/20 05:52:14;;;;;;;26.40;12.05;;;;;;;;;;5056170;28;20066;-49
2021/12/20 05:54:40;;;;;;;24.55;12.20;;;;;;;;;;5056205;28;20078;-49
2021/12/20 05:57:06;;;;;;;20.52;10.75;;;;;;;;;;5056253;28;20017;-49
2021/12/20 05:59:37;;;;;;;25.60;13.15;;;;;;;;;;5055836;28;20027;-50
2021/12/20 06:02:03;;;;;;;20.38;10.60;;;;;;;;;;5056162;28;20515;-50
2021/12/20 06:04:29;;;;;;;16.05;6.80;;;;;;;;;;5056029;28;20071;-48
2021/12/20 06:06:55;;;;;;;20.50;10.20;;;;;;;;;;5056277;28;20028;-49
2021/12/20 06:09:21;;;;;;;16.73;8.40;;;;;;;;;;5055742;28;20440;-50
2021/12/20 06:11:48;;;;;;;26.52;11.60;;;;;;;;;;5056217;28;20075;-50
2021/12/20 06:14:18;;;;;;;22.08;10.02;;;;;;;;;;5055727;28;20070;-50
2021/12/20 06:16:44;;;;;;;31.20;15.32;;;;;;;;;;5055593;28;20047;-49
2021/12/20 06:19:13;;;;;;;23.65;11.23;;;;;;;;;;5054654;28;20060;-49
2021/12/20 06:21:39;;;;;;;25.27;11.82;;;;;;;;;;5055580;28;20035;-50
2021/12/20 06:24:07;;;;;;;16.55;8.20;;;;;;;;;;5055508;28;20066;-49
2021/12/20 06:26:33;;;;;;;21.13;9.00;;;;;;;;;;5054084;28;20393;-50
2021/12/20 06:29:00;;;;;;;27.05;13.82;;;;;;;;;;5055281;28;20024;-49
2021/12/20 06:31:26;;;;;;;46.72;23.08;;;;;;;;;;5055498;28;20021;-50
2021/12/20 06:33:52;;;;;;;38.47;18.13;;;;;;;;;;5055509;28;20359;-50
2021/12/20 06:36:19;;;;;;;20.48;10.70;;;;;;;;;;5055302;28;20056;-49
2021/12/20 06:38:47;;;;;;;36.53;17.42;;;;;;;;;;5055229;28;20096;-51
2021/12/20 06:41:13;;;;;;;32.55;14.20;;;;;;;;;;5055128;28;20594;-50
2021/12/20 06:43:39;;;;;;;50.88;18.60;;;;;;;;;;5055080;28;20033;-50
2021/12/20 06:46:09;;;;;;;46.05;17.45;;;;;;;;;;5055157;28;20036;-50
2021/12/20 06:48:35;;;;;;;33.38;14.23;;;;;;;;;;5054459;28;20021;-49
2021/12/20 06:51:02;;;;;;;27.80;12.18;;;;;;;;;;5055062;28;20025;-50
2021/12/20 06:53:28;;;;;;;17.42;8.35;;;;;;;;;;5055066;28;20021;-49
2021/12/20 06:55:54;;;;;;;14.20;7.10;;;;;;;;;;5054976;28;20075;-49
2021/12/20 06:58:20;;;;;;;22.58;8.63;;;;;;;;;;5054969;28;20024;-49
2021/12/20 07:00:48;;;;;;;13.13;5.90;;;;;;;;;;5055039;28;20059;-49
2021/12/20 07:03:19;;;;;;;17.95;7.50;;;;;;;;;;5054852;28;20029;-50
2021/12/20 07:05:45;;;;;;;15.40;6.60;;;;;;;;;;5054789;28;20029;-50
2021/12/20 07:08:14;;;;;;;14.32;7.30;;;;;;;;;;5054623;28;20062;-51
2021/12/20 07:10:40;;;;;;;15.60;7.22;;;;;;;;;;5054928;28;20108;-50
2021/12/20 07:13:06;;;;;;;11.75;5.78;;;;;;;;;;5054515;28;20376;-50
2021/12/20 07:15:32;;;;;;;21.08;8.07;;;;;;;;;;5054904;28;20033;-51
2021/12/20 07:17:59;;;;;;;23.05;9.27;;;;;;;;;;5054293;28;20053;-52
2021/12/20 07:20:25;;;;;;;34.67;11.23;;;;;;;;;;5054428;28;20029;-51
2021/12/20 07:22:51;;;;;;;53.30;14.45;;;;;;;;;;5054583;28;20032;-50
2021/12/20 07:25:21;;;;;;;62.17;17.63;;;;;;;;;;5054445;28;20096;-48
2021/12/20 07:27:48;;;;;;;49.67;17.35;;;;;;;;;;5054694;28;20378;-48
2021/12/20 07:30:14;;;;;;;29.15;11.77;;;;;;;;;;5054212;28;20056;-49
2021/12/20 07:32:43;;;;;;;20.70;8.60;;;;;;;;;;5054175;28;20031;-48
2021/12/20 07:35:09;;;;;;;12.02;5.40;;;;;;;;;;5054273;28;20056;-50
2021/12/20 07:37:36;;;;;;;10.77;5.68;;;;;;;;;;5054207;28;20021;-49
2021/12/20 07:40:03;;;;;;;12.18;6.60;;;;;;;;;;5053964;28;20028;-52
2021/12/20 07:42:29;;;;;;;13.00;7.20;;;;;;;;;;5054102;28;20519;-50
2021/12/20 07:44:55;;;;;;;12.98;7.40;;;;;;;;;;5054243;28;20028;-52
2021/12/20 07:47:21;;;;;;;14.80;6.20;;;;;;;;;;5054120;28;20025;-52
2021/12/20 07:49:47;;;;;;;10.48;5.15;;;;;;;;;;5053966;28;20025;-52
2021/12/20 07:52:13;;;;;;;9.95;4.50;;;;;;;;;;5053914;28;20021;-49
2021/12/20 07:54:39;;;;;;;7.07;3.67;;;;;;;;;;5053786;28;20021;-48
2021/12/20 07:57:08;;;;;;;9.27;4.63;;;;;;;;;;5053911;28;20029;-49
2021/12/20 07:59:34;;;;;;;8.20;3.78;;;;;;;;;;5052898;28;20416;-53
2021/12/20 08:02:02;;;;;;;6.45;3.60;;;;;;;;;;5053770;28;20029;-51
2021/12/20 08:04:28;;;;;;;7.80;4.80;;;;;;;;;;5053817;28;20032;-51
2021/12/20 08:06:54;;;;;;;8.55;5.80;;;;;;;;;;5053804;28;20025;-50
2021/12/20 08:09:21;;;;;;;11.27;5.55;;;;;;;;;;5053600;28;20105;-52
2021/12/20 08:11:47;;;;;;;8.25;4.97;;;;;;;;;;5053599;28;20048;-52
2021/12/20 08:14:13;;;;;;;4.78;3.65;;;;;;;;;;5053440;28;20035;-52
2021/12/20 08:16:39;;;;;;;7.03;3.70;;;;;;;;;;5053468;28;20128;-52
2021/12/20 08:19:05;;;;;;;3.67;3.17;;;;;;;;;;5053566;28;20021;-53
2021/12/20 08:21:32;;;;;;;4.65;3.13;;;;;;;;;;5053541;28;20131;-52
2021/12/20 08:23:58;;;;;;;4.97;3.47;;;;;;;;;;5053429;28;20496;-51
2021/12/20 08:26:26;;;;;;;5.47;3.15;;;;;;;;;;5053350;28;20036;-52
2021/12/20 08:28:52;;;;;;;4.68;2.67;;;;;;;;;;5053190;28;20020;-51
2021/12/20 08:31:18;;;;;;;4.28;2.90;;;;;;;;;;5053650;28;20151;-52
2021/12/20 08:33:44;;;;;;;6.97;3.58;;;;;;;;;;5053185;28;20033;-51
2021/12/20 08:36:12;;;;;;;9.50;3.85;;;;;;;;;;5053386;28;20512;-52
2021/12/20 08:38:39;;;;;;;8.05;3.47;;;;;;;;;;5053206;28;20025;-53
2021/12/20 08:41:05;;;;;;;6.95;3.08;;;;;;;;;;5053162;28;20116;-53
2021/12/20 08:43:36;;;;;;;7.30;3.70;;;;;;;;;;5053093;28;20129;-53
2021/12/20 08:46:04;;;;;;;10.53;4.20;;;;;;;;;;5053202;28;20026;-52
2021/12/20 08:48:31;;;;;;;10.57;4.82;;;;;;;;;;5053466;28;20013;-52
2021/12/20 08:50:58;;;;;;;6.68;3.70;;;;;;;;;;5053183;28;20495;-51
2021/12/20 08:53:24;;;;;;;6.90;4.20;;;;;;;;;;5053258;28;20025;-51
2021/12/20 08:55:51;;;;;;;4.65;3.20;;;;;;;;;;5053190;28;20017;-52
2021/12/20 08:58:17;;;;;;;6.75;3.50;;;;;;;;;;5052886;28;20052;-50
2021/12/20 09:00:43;;;;;;;8.43;3.50;;;;;;;;;;5052978;28;20074;-52
2021/12/20 09:03:11;;;;;;;10.75;4.22;;;;;;;;;;5053151;28;20113;-49
2021/12/20 09:05:37;;;;;;;9.95;4.10;;;;;;;;;;5053155;28;20021;-51
2021/12/20 09:08:09;;;;;;;12.15;6.38;;;;;;;;;;5053200;28;20036;-51
2021/12/20 09:10:35;;;;;;;9.23;4.30;;;;;;;;;;5053514;28;20083;-51
2021/12/20 09:13:02;;;;;;;7.20;3.78;;;;;;;;;;5056887;28;20449;-51
2021/12/20 09:15:28;;;;;;;13.10;4.28;;;;;;;;;;5057209;28;20025;-52
2021/12/20 09:17:55;;;;;;;10.10;3.92;;;;;;;;;;5056654;28;20048;-51
2021/12/20 09:20:22;;;;;;;5.55;3.15;;;;;;;;;;5056990;28;20027;-50
2021/12/20 09:22:52;;;;;;;9.20;3.85;;;;;;;;;;5056869;28;20024;-49
2021/12/20 09:25:24;;;;;;;7.38;2.90;;;;;;;;;;5056720;28;20032;-52
2021/12/20 09:27:51;;;;;;;7.47;4.20;;;;;;;;;;5056771;28;20023;-51
2021/12/20 09:30:17;;;;;;;6.82;3.47;;;;;;;;;;5056587;28;20097;-52
2021/12/20 09:32:44;;;;;;;9.27;4.20;;;;;;;;;;5057059;28;20492;-51
2021/12/20 09:35:10;;;;;;;6.70;3.70;;;;;;;;;;5056514;28;20419;-52
2021/12/20 09:37:38;;;;;;;8.48;3.53;;;;;;;;;;5056536;28;20028;-52
2021/12/20 09:40:05;;;;;;;8.10;3.92;;;;;;;;;;5056345;28;20021;-51
2021/12/20 09:42:33;;;;;;;7.30;4.43;;;;;;;;;;5056232;28;20045;-52
2021/12/20 09:45:00;;;;;;;7.90;4.32;;;;;;;;;;5056374;28;20021;-50
2021/12/20 09:47:31;;;;;;;5.85;3.30;;;;;;;;;;5056448;28;20037;-53
2021/12/20 09:49:57;;;;;;;7.20;3.17;;;;;;;;;;5056306;28;20100;-51
2021/12/20 09:52:24;;;;;;;7.55;3.45;;;;;;;;;;5056620;28;20025;-52
2021/12/20 09:54:50;;;;;;;8.90;3.97;;;;;;;;;;5056150;28;20025;-50
2021/12/20 09:57:17;;;;;;;8.68;3.70;;;;;;;;;;5056088;28;20428;-52
2021/12/20 09:59:44;;;;;;;9.63;3.70;;;;;;;;;;5055932;28;20087;-49
2021/12/20 10:02:10;;;;;;;8.27;3.58;;;;;;;;;;5055993;28;20043;-50
2021/12/20 10:04:36;;;;;;;7.47;3.63;;;;;;;;;;5056065;28;20017;-49
2021/12/20 10:07:03;;;;;;;8.05;3.95;;;;;;;;;;5055899;28;20521;-49
2021/12/20 10:09:33;;;;;;;7.88;3.85;;;;;;;;;;5056209;28;20059;-49
2021/12/20 10:12:13;;;;;;;11.88;3.45;;;;;;;;;;5055828;28;20472;-49
2021/12/20 10:15:06;;;;;;;7.82;3.40;;;;;;;;;;5055855;28;20071;-54
2021/12/20 10:17:50;;;;;;;10.02;3.33;;;;;;;;;;5052828;28;20053;-56
2021/12/20 10:20:36;;;;;;;12.48;3.45;;;;;;;;;;5055585;28;20056;-52
2021/12/20 10:23:21;;;;;;;7.88;3.50;;;;;;;;;;5054549;28;20119;-53
2021/12/20 10:25:49;;;;;;;11.73;3.75;;;;;;;;;;5055657;28;20154;-57
2021/12/20 10:28:21;;;;;;;11.70;4.38;;;;;;;;;;5055727;28;20028;-54
2021/12/20 10:30:49;;;;;;;8.75;3.70;;;;;;;;;;5055423;28;20029;-57
2021/12/20 10:33:17;;;;;;;10.93;4.22;;;;;;;;;;5055663;28;20021;-53
2021/12/20 10:35:56;;;;;;;9.50;3.80;;;;;;;;;;5055525;28;20021;-59
2021/12/20 10:38:27;;;;;;;7.65;3.22;;;;;;;;;;5055502;28;20025;-64
2021/12/20 10:41:02;;;;;;;17.70;4.55;;;;;;;;;;5055185;28;20083;-57
2021/12/20 10:43:49;;;;;;;8.25;4.03;;;;;;;;;;5055197;28;20021;-53
2021/12/20 10:46:22;;;;;;;7.65;3.17;;;;;;;;;;5055655;28;20083;-53
2021/12/20 10:48:50;;;;;;;6.03;3.00;;;;;;;;;;5055226;28;20504;-52
2021/12/20 10:51:25;;;;;;;7.35;3.83;;;;;;;;;;5055159;28;20025;-55
2021/12/20 10:54:02;;;;;;;8.90;4.22;;;;;;;;;;5055401;28;20029;-63
2021/12/20 10:56:34;;;;;;;18.83;4.10;;;;;;;;;;5055300;28;20013;-56
2021/12/20 10:59:01;;;;;;;12.27;3.47;;;;;;;;;;5055037;28;20032;-54
2021/12/20 11:04:22;;;;;;;9.95;5.35;;;;;;;;;;5032561;28;20030;-52
2021/12/20 11:09:04;;;;;;;26.13;13.23;;;;;;;;;;5032856;28;20045;-57
2021/12/20 11:09:46;;;;;;;12.20;4.20;;;;;;;;;;5032589;28;20033;-57
2021/12/20 11:12:16;;;;;;;10.43;3.95;;;;;;;;;;5033004;28;20498;-56
2021/12/20 11:14:46;;;;;;;13.65;5.18;;;;;;;;;;5032339;28;20026;-51
2021/12/20 11:17:19;;;;;;;14.77;4.90;;;;;;;;;;5032689;28;20057;-52
2021/12/20 11:19:46;;;;;;;12.15;6.43;;;;;;;;;;5032859;28;20072;-51
2021/12/20 11:22:20;;;;;;;12.30;6.55;;;;;;;;;;5032581;28;20053;-51
2021/12/20 11:24:47;;;;;;;14.70;4.78;;;;;;;;;;5032504;28;20025;-49
2021/12/20 11:27:20;;;;;;;10.50;5.32;;;;;;;;;;5032362;28;20026;-49
2021/12/20 11:29:48;;;;;;;14.38;7.53;;;;;;;;;;5032319;28;20032;-49
2021/12/20 11:32:14;;;;;;;21.52;8.25;;;;;;;;;;5032584;28;20026;-49
2021/12/20 11:34:42;;;;;;;23.42;6.90;;;;;;;;;;5032202;28;20045;-50
2021/12/20 11:37:09;;;;;;;20.85;8.90;;;;;;;;;;5032213;28;20084;-51
2021/12/20 11:39:35;;;;;;;19.35;7.50;;;;;;;;;;5032369;28;20032;-48
2021/12/20 11:42:01;;;;;;;37.15;17.08;;;;;;;;;;5048628;28;20485;-48
2021/12/20 11:44:29;;;;;;;46.65;21.10;;;;;;;;;;5054210;28;20025;-50
2021/12/20 11:47:01;;;;;;;37.67;16.23;;;;;;;;;;5054185;28;20032;-48
2021/12/20 11:49:27;;;;;;;;;;;;;;;;;;5054747;28;20068;-48
2021/12/20 11:51:56;;;;;;;25.58;10.95;;;;;;;;;;5054064;28;19936;-51
2021/12/20 11:54:54;;;;;;;31.50;12.27;;;;;;;;;;5054074;28;20025;-48
2021/12/20 11:57:29;;;;;;;21.85;9.35;;;;;;;;;;4992698;28;20038;-47
2021/12/20 11:59:56;;;;;;;20.58;10.05;;;;;;;;;;4992600;28;20069;-51
2021/12/20 12:02:24;;;;;;;19.90;5.68;;;;;;;;;;4992401;28;20037;-50
2021/12/20 12:05:00;;;;;;;30.55;9.48;;;;;;;;;;4992603;28;20030;-49
2021/12/20 12:07:35;;;;;;;42.33;10.93;;;;;;;;;;4992369;28;20049;-48
2021/12/20 12:10:07;;;;;;;48.25;15.82;;;;;;;;;;4992456;28;20065;-51
2021/12/20 12:12:39;;;;;;;41.78;11.90;;;;;;;;;;4992248;28;20030;-51
2021/12/20 12:15:07;;;;;;;;;;;;;;;;;;4992734;28;20065;-51
2021/12/20 12:17:49;;;;;;;104.05;28.33;;;;;;;;;;4992040;28;19922;-49
2021/12/20 12:20:35;;;;;;;60.97;23.23;;;;;;;;;;4976205;28;20103;-47
2021/12/20 12:23:13;;;;;;;43.88;15.48;;;;;;;;;;4992022;28;20125;-47
2021/12/20 12:25:41;;;;;;;26.10;4.95;;;;;;;;;;4992043;28;20113;-49
2021/12/20 12:28:08;;;;;;;23.02;6.95;;;;;;;;;;4992155;28;20033;-50
2021/12/20 12:30:35;;;;;;;28.38;10.10;;;;;;;;;;4992064;28;20145;-50
2021/12/20 12:33:02;;;;;;;25.30;10.00;;;;;;;;;;5025569;28;20067;-50
2021/12/20 12:35:42;;;;;;;38.83;14.43;;;;;;;;;;5053391;28;20033;-49
2021/12/20 12:38:25;;;;;;;40.53;13.00;;;;;;;;;;5053312;28;20507;-49
2021/12/20 12:41:11;;;;;;;44.63;17.38;;;;;;;;;;5053214;28;20028;-50
2021/12/20 12:43:49;;;;;;;42.85;13.68;;;;;;;;;;5053184;28;20025;-50
2021/12/20 12:46:15;;;;;;;36.28;11.73;;;;;;;;;;5057222;28;20039;-50
2021/12/20 12:48:51;;;;;;;35.50;11.75;;;;;;;;;;5059439;28;20029;-52
2021/12/20 12:51:20;;;;;;;36.63;13.32;;;;;;;;;;5048569;28;20035;-51
2021/12/20 12:53:46;;;;;;;21.63;8.50;;;;;;;;;;5039272;28;20087;-56
2021/12/20 12:56:24;;;;;;;19.42;8.43;;;;;;;;;;5039126;28;20108;-51
2021/12/20 12:59:11;;;;;;;18.17;8.48;;;;;;;;;;5039308;28;20030;-50
2021/12/20 13:01:48;;;;;;;29.60;10.73;;;;;;;;;;5039160;28;20033;-50
2021/12/20 13:04:14;;;;;;;38.67;14.93;;;;;;;;;;5039177;28;20029;-51
2021/12/20 13:06:40;;;;;;;31.58;12.38;;;;;;;;;;5032342;28;20033;-52
2021/12/20 13:09:07;;;;;;;34.38;13.27;;;;;;;;;;5039071;28;20088;-51
2021/12/20 13:11:35;;;;;;;29.85;10.50;;;;;;;;;;5039303;28;20411;-52
2021/12/20 13:14:10;;;;;;;29.63;9.38;;;;;;;;;;5039143;28;20832;-51
2021/12/20 13:16:42;;;;;;;21.73;8.50;;;;;;;;;;5038868;28;20445;-51
2021/12/20 13:19:09;;;;;;;;;;;;;;;;;;5039778;28;20083;-51
2021/12/20 13:21:49;;;;;;;15.95;6.75;;;;;;;;;;5036450;28;20254;-50
2021/12/20 13:24:16;;;;;;;8.63;4.22;;;;;;;;;;5038920;28;20032;-51
2021/12/20 13:26:42;;;;;;;12.15;5.25;;;;;;;;;;5039024;28;20500;-50
2021/12/20 13:29:14;;;;;;;10.27;4.57;;;;;;;;;;5038850;28;20022;-53
2021/12/20 13:31:40;;;;;;;13.65;4.20;;;;;;;;;;5036931;28;20420;-52
2021/12/20 13:34:11;;;;;;;14.02;7.03;;;;;;;;;;5039125;28;20025;-52
2021/12/20 13:36:37;;;;;;;16.55;7.07;;;;;;;;;;5038911;28;20017;-51
2021/12/20 13:39:06;;;;;;;13.27;6.40;;;;;;;;;;5038954;28;20022;-50
2021/12/20 13:41:33;;;;;;;18.58;7.68;;;;;;;;;;5038766;28;20033;-50
2021/12/20 13:44:01;;;;;;;28.83;8.52;;;;;;;;;;5038755;28;20025;-49
2021/12/20 13:46:39;;;;;;;23.95;8.70;;;;;;;;;;5038831;28;20424;-50
2021/12/20 13:49:14;;;;;;;37.63;12.73;;;;;;;;;;5037189;28;20028;-49
2021/12/20 13:51:48;;;;;;;24.65;10.23;;;;;;;;;;5036610;28;20430;-50
2021/12/20 13:54:15;;;;;;;16.48;7.03;;;;;;;;;;5038599;28;20040;-52
2021/12/20 13:56:43;;;;;;;24.92;8.90;;;;;;;;;;5037984;28;20497;-50
2021/12/20 13:59:09;;;;;;;16.38;7.45;;;;;;;;;;5035795;28;20029;-51
2021/12/20 14:01:36;;;;;;;30.58;11.73;;;;;;;;;;5035437;28;20034;-53
2021/12/20 14:04:02;;;;;;;21.00;9.07;;;;;;;;;;5035636;28;20432;-51
2021/12/20 14:06:34;;;;;;;25.83;10.75;;;;;;;;;;5035477;28;20029;-51
2021/12/20 14:09:34;;;;;;;22.60;7.90;;;;;;;;;;5032057;28;20021;-51
2021/12/20 14:12:14;;;;;;;12.93;6.43;;;;;;;;;;5033264;28;20053;-52
2021/12/20 14:15:19;;;;;;;20.92;6.35;;;;;;;;;;5033088;28;20033;-51
2021/12/20 14:18:07;;;;;;;11.38;5.20;;;;;;;;;;4974224;28;20054;-51
2021/12/20 14:20:36;;;;;;;21.38;8.35;;;;;;;;;;4971229;28;20027;-53
2021/12/20 14:23:03;;;;;;;17.63;7.38;;;;;;;;;;4974183;28;20106;-52
2021/12/20 14:25:32;;;;;;;22.17;8.57;;;;;;;;;;4974212;28;20050;-51
2021/12/20 14:27:59;;;;;;;19.45;8.10;;;;;;;;;;4969238;28;20467;-52
2021/12/20 14:30:25;;;;;;;19.38;8.43;;;;;;;;;;4974097;28;20026;-51
2021/12/20 14:32:51;;;;;;;15.27;6.25;;;;;;;;;;4974110;28;20023;-51
2021/12/20 14:35:27;;;;;;;16.30;6.88;;;;;;;;;;4974052;28;20034;-51
2021/12/20 14:37:54;;;;;;;11.95;5.45;;;;;;;;;;4973963;28;20085;-52
2021/12/20 14:40:38;;;;;;;10.90;5.13;;;;;;;;;;4974045;28;20034;-50
2021/12/20 14:43:06;;;;;;;14.50;5.30;;;;;;;;;;4969715;28;20047;-51
2021/12/20 14:45:33;;;;;;;14.07;6.03;;;;;;;;;;4973690;28;20102;-51
2021/12/20 14:48:20;;;;;;;10.18;4.70;;;;;;;;;;4991175;28;20045;-52
2021/12/20 14:50:48;;;;;;;15.55;6.30;;;;;;;;;;5033085;28;20489;-52